sensor_id;sensor_type;location;lat;lon;timestamp;temperature;humidity
7684;DHT22;3884;48.616;12.872;2023-02-22T00:00:33;2.50;1.00
7684;DHT22;3884;48.616;12.872;2023-02-22T00:03:11;2.50;1.00
7684;DHT22;3884;48.616;12.872;2023-02-22T00:05:40;2.50;1.00
7684;DHT22;3884;48.616;12.872;2023-02-22T00:08:10;2.60;1.00
7684;DHT22;3884;48.616;12.872;2023-02-22T00:10:37;2.50;1.00
7684;DHT22;3884;48.616;12.872;2023-02-22T00:13:06;2.50;1.00
7684;DHT22;3884;48.616;12.872;2023-02-22T00:15:34;2.50;1.00
7684;DHT22;3884;48.616;12.872;2023-02-22T00:18:03;2.50;1.00
7684;DHT22;3884;48.616;12.872;2023-02-22T00:20:33;2.50;1.00
7684;DHT22;3884;48.616;12.872;2023-02-22T00:23:04;2.60;1.00
7684;DHT22;3884;48.616;12.872;2023-02-22T00:25:32;2.70;90.90
7684;DHT22;3884;48.616;12.872;2023-02-22T00:28:11;2.70;99.90
7684;DHT22;3884;48.616;12.872;2023-02-22T00:30:40;2.70;99.90
7684;DHT22;3884;48.616;12.872;2023-02-22T00:33:08;2.60;1.00
7684;DHT22;3884;48.616;12.872;2023-02-22T00:35:37;2.40;1.00
7684;DHT22;3884;48.616;12.872;2023-02-22T00:38:05;2.40;1.00
7684;DHT22;3884;48.616;12.872;2023-02-22T00:40:33;2.40;1.00
7684;DHT22;3884;48.616;12.872;2023-02-22T00:43:03;2.40;1.00
7684;DHT22;3884;48.616;12.872;2023-02-22T00:45:32;2.40;1.00
7684;DHT22;3884;48.616;12.872;2023-02-22T00:48:00;2.40;1.00
7684;DHT22;3884;48.616;12.872;2023-02-22T00:50:29;2.50;1.00
7684;DHT22;3884;48.616;12.872;2023-02-22T00:52:59;2.40;99.90
7684;DHT22;3884;48.616;12.872;2023-02-22T00:55:30;2.30;1.00
7684;DHT22;3884;48.616;12.872;2023-02-22T00:57:58;2.20;1.00
7684;DHT22;3884;48.616;12.872;2023-02-22T01:00:30;2.30;99.90
7684;DHT22;3884;48.616;12.872;2023-02-22T01:02:57;2.30;1.00
7684;DHT22;3884;48.616;12.872;2023-02-22T01:05:27;2.20;1.00
7684;DHT22;3884;48.616;12.872;2023-02-22T01:07:56;2.30;55.70
7684;DHT22;3884;48.616;12.872;2023-02-22T01:10:27;2.30;17.40
7684;DHT22;3884;48.616;12.872;2023-02-22T01:12:56;2.40;1.00
7684;DHT22;3884;48.616;12.872;2023-02-22T01:15:25;2.40;1.00
7684;DHT22;3884;48.616;12.872;2023-02-22T01:17:57;2.50;99.90
7684;DHT22;3884;48.616;12.872;2023-02-22T01:20:25;2.50;99.90
7684;DHT22;3884;48.616;12.872;2023-02-22T01:22:54;2.50;90.60
7684;DHT22;3884;48.616;12.872;2023-02-22T01:25:23;2.40;1.00
7684;DHT22;3884;48.616;12.872;2023-02-22T01:27:52;2.30;1.00
7684;DHT22;3884;48.616;12.872;2023-02-22T01:30:22;2.20;1.00
7684;DHT22;3884;48.616;12.872;2023-02-22T01:32:50;2.10;99.90
7684;DHT22;3884;48.616;12.872;2023-02-22T01:35:19;2.10;1.00
7684;DHT22;3884;48.616;12.872;2023-02-22T01:37:47;2.10;1.00
7684;DHT22;3884;48.616;12.872;2023-02-22T01:40:17;2.10;36.60
7684;DHT22;3884;48.616;12.872;2023-02-22T01:42:47;2.10;99.90
7684;DHT22;3884;48.616;12.872;2023-02-22T01:45:43;2.10;99.90
7684;DHT22;3884;48.616;12.872;2023-02-22T01:48:15;2.00;99.90
7684;DHT22;3884;48.616;12.872;2023-02-22T01:50:47;2.00;99.90
7684;DHT22;3884;48.616;12.872;2023-02-22T01:53:19;2.00;95.50
7684;DHT22;3884;48.616;12.872;2023-02-22T01:55:48;2.00;1.00
7684;DHT22;3884;48.616;12.872;2023-02-22T01:58:16;1.90;1.00
7684;DHT22;3884;48.616;12.872;2023-02-22T02:00:46;1.90;1.00
7684;DHT22;3884;48.616;12.872;2023-02-22T02:03:16;1.80;3.00
7684;DHT22;3884;48.616;12.872;2023-02-22T02:05:45;1.90;99.90
7684;DHT22;3884;48.616;12.872;2023-02-22T02:08:20;1.90;99.90
7684;DHT22;3884;48.616;12.872;2023-02-22T02:10:48;1.90;99.90
7684;DHT22;3884;48.616;12.872;2023-02-22T02:13:15;1.80;99.90
7684;DHT22;3884;48.616;12.872;2023-02-22T02:15:42;1.80;99.90
7684;DHT22;3884;48.616;12.872;2023-02-22T02:18:11;1.70;99.90
7684;DHT22;3884;48.616;12.872;2023-02-22T02:20:48;1.70;99.90
7684;DHT22;3884;48.616;12.872;2023-02-22T02:23:46;1.70;99.90
7684;DHT22;3884;48.616;12.872;2023-02-22T02:26:34;1.60;99.90
7684;DHT22;3884;48.616;12.872;2023-02-22T02:32:54;1.70;99.90
7684;DHT22;3884;48.616;12.872;2023-02-22T02:35:32;1.70;99.90
7684;DHT22;3884;48.616;12.872;2023-02-22T02:38:09;1.70;99.90
7684;DHT22;3884;48.616;12.872;2023-02-22T02:40:45;1.50;99.90
7684;DHT22;3884;48.616;12.872;2023-02-22T02:43:20;1.50;99.90
7684;DHT22;3884;48.616;12.872;2023-02-22T02:45:55;1.50;99.90
7684;DHT22;3884;48.616;12.872;2023-02-22T02:48:27;1.60;99.90
7684;DHT22;3884;48.616;12.872;2023-02-22T02:50:57;1.50;99.90
7684;DHT22;3884;48.616;12.872;2023-02-22T02:53:31;1.40;99.90
7684;DHT22;3884;48.616;12.872;2023-02-22T02:56:01;1.50;99.90
7684;DHT22;3884;48.616;12.872;2023-02-22T02:58:28;1.40;99.90
7684;DHT22;3884;48.616;12.872;2023-02-22T03:00:58;1.40;99.90
7684;DHT22;3884;48.616;12.872;2023-02-22T03:03:57;1.50;99.90
7684;DHT22;3884;48.616;12.872;2023-02-22T03:06:47;1.40;99.90
7684;DHT22;3884;48.616;12.872;2023-02-22T03:09:28;1.50;99.90
7684;DHT22;3884;48.616;12.872;2023-02-22T03:12:08;1.50;99.90
7684;DHT22;3884;48.616;12.872;2023-02-22T03:14:44;1.40;99.90
7684;DHT22;3884;48.616;12.872;2023-02-22T03:17:17;1.30;99.90
7684;DHT22;3884;48.616;12.872;2023-02-22T03:19:50;1.20;9.50
7684;DHT22;3884;48.616;12.872;2023-02-22T03:22:23;1.20;24.40
7684;DHT22;3884;48.616;12.872;2023-02-22T03:24:57;1.00;60.80
7684;DHT22;3884;48.616;12.872;2023-02-22T03:27:32;0.90;99.90
7684;DHT22;3884;48.616;12.872;2023-02-22T03:30:06;0.90;99.90
7684;DHT22;3884;48.616;12.872;2023-02-22T03:32:36;0.90;99.90
7684;DHT22;3884;48.616;12.872;2023-02-22T03:35:08;1.00;99.90
7684;DHT22;3884;48.616;12.872;2023-02-22T03:37:39;1.00;99.90
7684;DHT22;3884;48.616;12.872;2023-02-22T03:40:11;1.00;99.90
7684;DHT22;3884;48.616;12.872;2023-02-22T03:42:46;1.10;99.90
7684;DHT22;3884;48.616;12.872;2023-02-22T03:45:16;1.10;99.90
7684;DHT22;3884;48.616;12.872;2023-02-22T03:47:47;1.20;99.90
7684;DHT22;3884;48.616;12.872;2023-02-22T03:50:20;1.20;99.90
7684;DHT22;3884;48.616;12.872;2023-02-22T03:52:50;1.20;99.90
7684;DHT22;3884;48.616;12.872;2023-02-22T03:55:23;1.20;43.20
7684;DHT22;3884;48.616;12.872;2023-02-22T03:57:53;1.20;1.00
7684;DHT22;3884;48.616;12.872;2023-02-22T04:00:23;1.20;1.00
7684;DHT22;3884;48.616;12.872;2023-02-22T04:02:51;1.10;1.00
7684;DHT22;3884;48.616;12.872;2023-02-22T04:05:21;1.10;1.00
7684;DHT22;3884;48.616;12.872;2023-02-22T04:07:50;1.10;1.00
7684;DHT22;3884;48.616;12.872;2023-02-22T04:10:17;1.10;1.00
7684;DHT22;3884;48.616;12.872;2023-02-22T04:12:44;1.10;1.00
7684;DHT22;3884;48.616;12.872;2023-02-22T04:15:14;1.10;1.00
7684;DHT22;3884;48.616;12.872;2023-02-22T04:17:45;1.20;1.00
7684;DHT22;3884;48.616;12.872;2023-02-22T04:20:14;1.20;1.00
7684;DHT22;3884;48.616;12.872;2023-02-22T04:22:53;1.20;1.00
7684;DHT22;3884;48.616;12.872;2023-02-22T04:25:21;1.00;1.00
7684;DHT22;3884;48.616;12.872;2023-02-22T04:27:49;0.90;1.00
7684;DHT22;3884;48.616;12.872;2023-02-22T04:30:21;0.80;1.00
7684;DHT22;3884;48.616;12.872;2023-02-22T04:32:49;0.80;79.60
7684;DHT22;3884;48.616;12.872;2023-02-22T04:35:20;0.80;99.90
7684;DHT22;3884;48.616;12.872;2023-02-22T04:37:47;0.80;99.90
7684;DHT22;3884;48.616;12.872;2023-02-22T04:40:16;0.90;99.90
7684;DHT22;3884;48.616;12.872;2023-02-22T04:42:43;0.80;96.90
7684;DHT22;3884;48.616;12.872;2023-02-22T04:45:11;0.80;72.70
7684;DHT22;3884;48.616;12.872;2023-02-22T04:47:38;0.70;45.40
7684;DHT22;3884;48.616;12.872;2023-02-22T04:50:08;0.80;77.30
7684;DHT22;3884;48.616;12.872;2023-02-22T04:52:35;0.90;77.00
7684;DHT22;3884;48.616;12.872;2023-02-22T04:55:03;1.00;95.40
7684;DHT22;3884;48.616;12.872;2023-02-22T04:57:33;1.00;1.00
7684;DHT22;3884;48.616;12.872;2023-02-22T05:00:00;0.90;1.00
7684;DHT22;3884;48.616;12.872;2023-02-22T05:02:31;0.90;1.00
7684;DHT22;3884;48.616;12.872;2023-02-22T05:04:58;0.90;1.00
7684;DHT22;3884;48.616;12.872;2023-02-22T05:07:25;0.90;1.00
7684;DHT22;3884;48.616;12.872;2023-02-22T05:09:52;0.80;1.00
7684;DHT22;3884;48.616;12.872;2023-02-22T05:12:19;0.80;1.00
7684;DHT22;3884;48.616;12.872;2023-02-22T05:14:47;0.80;1.00
7684;DHT22;3884;48.616;12.872;2023-02-22T05:17:14;0.90;1.00
7684;DHT22;3884;48.616;12.872;2023-02-22T05:19:41;0.90;1.00
7684;DHT22;3884;48.616;12.872;2023-02-22T05:22:08;1.00;1.00
7684;DHT22;3884;48.616;12.872;2023-02-22T05:24:35;0.90;1.00
7684;DHT22;3884;48.616;12.872;2023-02-22T05:27:03;0.80;1.00
7684;DHT22;3884;48.616;12.872;2023-02-22T05:29:30;0.80;1.00
7684;DHT22;3884;48.616;12.872;2023-02-22T05:31:58;0.80;1.00
7684;DHT22;3884;48.616;12.872;2023-02-22T05:34:27;0.70;99.90
7684;DHT22;3884;48.616;12.872;2023-02-22T05:36:54;0.60;99.90
7684;DHT22;3884;48.616;12.872;2023-02-22T05:39:21;0.70;99.90
7684;DHT22;3884;48.616;12.872;2023-02-22T05:41:48;0.60;99.90
7684;DHT22;3884;48.616;12.872;2023-02-22T05:44:15;0.60;99.90
7684;DHT22;3884;48.616;12.872;2023-02-22T05:46:42;0.60;99.90
7684;DHT22;3884;48.616;12.872;2023-02-22T05:49:10;0.70;99.90
7684;DHT22;3884;48.616;12.872;2023-02-22T05:51:37;0.70;99.90
7684;DHT22;3884;48.616;12.872;2023-02-22T05:54:05;0.70;99.90
7684;DHT22;3884;48.616;12.872;2023-02-22T05:56:32;0.80;99.90
7684;DHT22;3884;48.616;12.872;2023-02-22T05:58:59;0.70;99.90
7684;DHT22;3884;48.616;12.872;2023-02-22T06:01:26;0.70;99.90
7684;DHT22;3884;48.616;12.872;2023-02-22T06:03:53;0.60;99.90
7684;DHT22;3884;48.616;12.872;2023-02-22T06:06:21;0.60;99.90
7684;DHT22;3884;48.616;12.872;2023-02-22T06:08:49;0.50;99.90
7684;DHT22;3884;48.616;12.872;2023-02-22T06:11:16;0.50;99.90
7684;DHT22;3884;48.616;12.872;2023-02-22T06:13:48;0.60;99.90
7684;DHT22;3884;48.616;12.872;2023-02-22T06:16:16;0.50;99.90
7684;DHT22;3884;48.616;12.872;2023-02-22T06:18:43;0.50;99.90
7684;DHT22;3884;48.616;12.872;2023-02-22T06:21:10;0.40;99.90
7684;DHT22;3884;48.616;12.872;2023-02-22T06:23:38;0.30;99.90
7684;DHT22;3884;48.616;12.872;2023-02-22T06:26:05;0.40;99.90
7684;DHT22;3884;48.616;12.872;2023-02-22T06:28:32;0.50;99.90
7684;DHT22;3884;48.616;12.872;2023-02-22T06:30:59;0.60;99.90
7684;DHT22;3884;48.616;12.872;2023-02-22T06:33:26;0.70;99.90
7684;DHT22;3884;48.616;12.872;2023-02-22T06:35:53;0.70;99.90
7684;DHT22;3884;48.616;12.872;2023-02-22T06:38:21;0.80;99.90
7684;DHT22;3884;48.616;12.872;2023-02-22T06:40:50;0.90;99.90
7684;DHT22;3884;48.616;12.872;2023-02-22T06:43:17;1.00;99.90
7684;DHT22;3884;48.616;12.872;2023-02-22T06:45:44;1.00;99.90
7684;DHT22;3884;48.616;12.872;2023-02-22T06:48:12;0.90;99.90
7684;DHT22;3884;48.616;12.872;2023-02-22T06:50:39;1.00;99.90
7684;DHT22;3884;48.616;12.872;2023-02-22T06:53:06;1.10;99.90
7684;DHT22;3884;48.616;12.872;2023-02-22T06:55:34;1.10;99.90
7684;DHT22;3884;48.616;12.872;2023-02-22T06:58:03;1.20;99.90
7684;DHT22;3884;48.616;12.872;2023-02-22T07:00:31;1.10;99.90
7684;DHT22;3884;48.616;12.872;2023-02-22T07:02:59;1.10;99.90
7684;DHT22;3884;48.616;12.872;2023-02-22T07:05:26;1.10;99.90
7684;DHT22;3884;48.616;12.872;2023-02-22T07:08:00;1.20;99.90
7684;DHT22;3884;48.616;12.872;2023-02-22T07:10:29;1.30;99.90
7684;DHT22;3884;48.616;12.872;2023-02-22T07:12:57;1.40;99.90
7684;DHT22;3884;48.616;12.872;2023-02-22T07:15:27;1.40;99.90
7684;DHT22;3884;48.616;12.872;2023-02-22T07:17:54;1.60;99.90
7684;DHT22;3884;48.616;12.872;2023-02-22T07:20:26;1.70;99.90
7684;DHT22;3884;48.616;12.872;2023-02-22T07:22:53;1.70;99.90
7684;DHT22;3884;48.616;12.872;2023-02-22T07:25:22;1.70;99.90
7684;DHT22;3884;48.616;12.872;2023-02-22T07:27:49;1.70;99.90
7684;DHT22;3884;48.616;12.872;2023-02-22T07:30:19;1.70;99.90
7684;DHT22;3884;48.616;12.872;2023-02-22T07:32:52;1.80;99.90
7684;DHT22;3884;48.616;12.872;2023-02-22T07:35:20;1.80;99.90
7684;DHT22;3884;48.616;12.872;2023-02-22T07:37:48;1.90;99.90
7684;DHT22;3884;48.616;12.872;2023-02-22T07:40:17;1.90;99.90
7684;DHT22;3884;48.616;12.872;2023-02-22T07:42:52;1.90;99.90
7684;DHT22;3884;48.616;12.872;2023-02-22T07:45:20;2.00;99.90
7684;DHT22;3884;48.616;12.872;2023-02-22T07:47:47;2.10;99.90
7684;DHT22;3884;48.616;12.872;2023-02-22T07:50:17;2.20;99.90
7684;DHT22;3884;48.616;12.872;2023-02-22T07:52:45;2.20;99.90
7684;DHT22;3884;48.616;12.872;2023-02-22T07:55:13;2.20;99.90
7684;DHT22;3884;48.616;12.872;2023-02-22T07:57:41;2.30;99.90
7684;DHT22;3884;48.616;12.872;2023-02-22T08:00:09;2.40;99.90
7684;DHT22;3884;48.616;12.872;2023-02-22T08:02:39;2.60;99.90
7684;DHT22;3884;48.616;12.872;2023-02-22T08:05:07;2.90;99.90
7684;DHT22;3884;48.616;12.872;2023-02-22T08:07:37;3.20;99.90
7684;DHT22;3884;48.616;12.872;2023-02-22T08:10:05;3.60;99.90
7684;DHT22;3884;48.616;12.872;2023-02-22T08:12:33;3.80;99.90
7684;DHT22;3884;48.616;12.872;2023-02-22T08:15:01;3.90;99.90
7684;DHT22;3884;48.616;12.872;2023-02-22T08:17:28;3.90;99.90
7684;DHT22;3884;48.616;12.872;2023-02-22T08:19:55;3.90;99.90
7684;DHT22;3884;48.616;12.872;2023-02-22T08:22:22;3.90;99.90
7684;DHT22;3884;48.616;12.872;2023-02-22T08:24:51;4.00;99.90
7684;DHT22;3884;48.616;12.872;2023-02-22T08:27:22;4.00;99.90
7684;DHT22;3884;48.616;12.872;2023-02-22T08:29:50;4.10;99.90
7684;DHT22;3884;48.616;12.872;2023-02-22T08:32:18;4.20;99.90
7684;DHT22;3884;48.616;12.872;2023-02-22T08:34:45;4.20;99.90
7684;DHT22;3884;48.616;12.872;2023-02-22T08:37:12;4.40;99.90
7684;DHT22;3884;48.616;12.872;2023-02-22T08:39:39;4.60;99.90
7684;DHT22;3884;48.616;12.872;2023-02-22T08:42:08;4.70;99.90
7684;DHT22;3884;48.616;12.872;2023-02-22T08:44:35;5.00;99.90
7684;DHT22;3884;48.616;12.872;2023-02-22T08:47:03;5.00;99.90
7684;DHT22;3884;48.616;12.872;2023-02-22T08:49:33;5.20;99.90
7684;DHT22;3884;48.616;12.872;2023-02-22T08:52:01;5.30;99.90
7684;DHT22;3884;48.616;12.872;2023-02-22T08:54:28;5.50;99.90
7684;DHT22;3884;48.616;12.872;2023-02-22T08:56:55;5.60;99.90
7684;DHT22;3884;48.616;12.872;2023-02-22T08:59:23;5.70;99.90
7684;DHT22;3884;48.616;12.872;2023-02-22T09:01:51;5.80;99.90
7684;DHT22;3884;48.616;12.872;2023-02-22T09:04:20;6.20;99.90
7684;DHT22;3884;48.616;12.872;2023-02-22T09:06:47;6.40;99.90
7684;DHT22;3884;48.616;12.872;2023-02-22T09:09:17;6.50;99.90
7684;DHT22;3884;48.616;12.872;2023-02-22T09:11:46;7.10;99.90
7684;DHT22;3884;48.616;12.872;2023-02-22T09:14:13;7.20;99.90
7684;DHT22;3884;48.616;12.872;2023-02-22T09:16:43;7.30;99.90
7684;DHT22;3884;48.616;12.872;2023-02-22T09:19:11;7.40;99.90
7684;DHT22;3884;48.616;12.872;2023-02-22T09:21:38;7.60;99.90
7684;DHT22;3884;48.616;12.872;2023-02-22T09:24:06;7.80;99.90
7684;DHT22;3884;48.616;12.872;2023-02-22T09:26:34;8.00;99.90
7684;DHT22;3884;48.616;12.872;2023-02-22T09:29:05;8.30;99.90
7684;DHT22;3884;48.616;12.872;2023-02-22T09:31:35;8.50;99.90
7684;DHT22;3884;48.616;12.872;2023-02-22T09:34:04;8.70;99.90
7684;DHT22;3884;48.616;12.872;2023-02-22T09:36:39;8.80;99.90
7684;DHT22;3884;48.616;12.872;2023-02-22T09:39:06;8.80;99.90
7684;DHT22;3884;48.616;12.872;2023-02-22T09:41:38;9.00;92.70
7684;DHT22;3884;48.616;12.872;2023-02-22T09:44:16;9.10;13.80
7684;DHT22;3884;48.616;12.872;2023-02-22T09:46:44;9.30;1.00
7684;DHT22;3884;48.616;12.872;2023-02-22T09:49:19;9.40;1.00
7684;DHT22;3884;48.616;12.872;2023-02-22T09:51:51;9.50;1.00
7684;DHT22;3884;48.616;12.872;2023-02-22T09:54:23;9.60;1.00
7684;DHT22;3884;48.616;12.872;2023-02-22T09:56:56;9.80;1.00
7684;DHT22;3884;48.616;12.872;2023-02-22T09:59:27;9.80;1.00
7684;DHT22;3884;48.616;12.872;2023-02-22T10:02:00;9.80;99.90
7684;DHT22;3884;48.616;12.872;2023-02-22T10:04:39;10.00;99.90
7684;DHT22;3884;48.616;12.872;2023-02-22T10:07:15;10.10;99.90
7684;DHT22;3884;48.616;12.872;2023-02-22T10:09:44;10.10;1.00
7684;DHT22;3884;48.616;12.872;2023-02-22T10:12:18;10.10;99.90
7684;DHT22;3884;48.616;12.872;2023-02-22T10:15:22;10.20;99.90
7684;DHT22;3884;48.616;12.872;2023-02-22T10:17:59;10.30;99.90
7684;DHT22;3884;48.616;12.872;2023-02-22T10:20:41;10.30;1.00
7684;DHT22;3884;48.616;12.872;2023-02-22T10:23:18;10.50;99.90
7684;DHT22;3884;48.616;12.872;2023-02-22T10:25:49;10.70;99.90
7684;DHT22;3884;48.616;12.872;2023-02-22T10:28:21;10.80;1.00
7684;DHT22;3884;48.616;12.872;2023-02-22T10:30:52;10.90;99.90
7684;DHT22;3884;48.616;12.872;2023-02-22T10:33:22;10.90;95.30
7684;DHT22;3884;48.616;12.872;2023-02-22T10:35:53;11.10;99.90
7684;DHT22;3884;48.616;12.872;2023-02-22T10:38:22;11.20;1.00
7684;DHT22;3884;48.616;12.872;2023-02-22T10:40:53;11.20;99.90
7684;DHT22;3884;48.616;12.872;2023-02-22T10:43:22;11.30;1.00
7684;DHT22;3884;48.616;12.872;2023-02-22T10:45:52;11.40;99.90
7684;DHT22;3884;48.616;12.872;2023-02-22T10:48:22;11.40;1.00
7684;DHT22;3884;48.616;12.872;2023-02-22T10:50:54;11.50;1.00
7684;DHT22;3884;48.616;12.872;2023-02-22T10:53:25;11.30;1.00
7684;DHT22;3884;48.616;12.872;2023-02-22T10:56:15;11.40;99.90
7684;DHT22;3884;48.616;12.872;2023-02-22T10:58:48;11.50;99.90
7684;DHT22;3884;48.616;12.872;2023-02-22T11:01:23;11.60;1.00
7684;DHT22;3884;48.616;12.872;2023-02-22T11:03:59;11.80;99.90
7684;DHT22;3884;48.616;12.872;2023-02-22T11:06:28;11.80;1.00
7684;DHT22;3884;48.616;12.872;2023-02-22T11:09:13;11.80;1.00
7684;DHT22;3884;48.616;12.872;2023-02-22T11:11:43;11.90;1.00
7684;DHT22;3884;48.616;12.872;2023-02-22T11:14:11;11.90;99.90
7684;DHT22;3884;48.616;12.872;2023-02-22T11:16:42;12.00;99.90
7684;DHT22;3884;48.616;12.872;2023-02-22T11:19:19;12.10;99.90
7684;DHT22;3884;48.616;12.872;2023-02-22T11:21:52;12.30;90.90
7684;DHT22;3884;48.616;12.872;2023-02-22T11:24:21;12.10;1.00
7684;DHT22;3884;48.616;12.872;2023-02-22T11:26:53;12.30;1.00
7684;DHT22;3884;48.616;12.872;2023-02-22T11:29:24;12.20;1.00
7684;DHT22;3884;48.616;12.872;2023-02-22T11:31:52;12.40;1.00
7684;DHT22;3884;48.616;12.872;2023-02-22T11:34:26;12.50;99.90
7684;DHT22;3884;48.616;12.872;2023-02-22T11:36:55;12.60;99.90
7684;DHT22;3884;48.616;12.872;2023-02-22T11:39:24;12.60;99.90
7684;DHT22;3884;48.616;12.872;2023-02-22T11:41:52;12.70;99.90
7684;DHT22;3884;48.616;12.872;2023-02-22T11:44:23;12.80;99.90
7684;DHT22;3884;48.616;12.872;2023-02-22T11:46:52;12.80;99.90
7684;DHT22;3884;48.616;12.872;2023-02-22T11:49:22;12.70;99.90
7684;DHT22;3884;48.616;12.872;2023-02-22T11:52:01;12.80;99.90
7684;DHT22;3884;48.616;12.872;2023-02-22T11:54:38;12.80;99.90
7684;DHT22;3884;48.616;12.872;2023-02-22T11:57:18;12.70;99.90
7684;DHT22;3884;48.616;12.872;2023-02-22T11:59:58;12.80;99.90
7684;DHT22;3884;48.616;12.872;2023-02-22T12:02:48;12.80;99.90
7684;DHT22;3884;48.616;12.872;2023-02-22T12:05:29;12.80;99.90
7684;DHT22;3884;48.616;12.872;2023-02-22T12:08:11;12.80;99.90
7684;DHT22;3884;48.616;12.872;2023-02-22T12:10:51;12.80;99.90
7684;DHT22;3884;48.616;12.872;2023-02-22T12:13:33;13.00;99.90
7684;DHT22;3884;48.616;12.872;2023-02-22T12:16:13;12.80;99.90
7684;DHT22;3884;48.616;12.872;2023-02-22T12:18:58;12.90;95.60
7684;DHT22;3884;48.616;12.872;2023-02-22T12:21:28;13.00;99.90
7684;DHT22;3884;48.616;12.872;2023-02-22T12:24:02;13.00;5.90
7684;DHT22;3884;48.616;12.872;2023-02-22T12:26:34;13.10;1.00
7684;DHT22;3884;48.616;12.872;2023-02-22T12:29:08;13.10;1.00
7684;DHT22;3884;48.616;12.872;2023-02-22T12:31:40;13.10;1.00
7684;DHT22;3884;48.616;12.872;2023-02-22T12:34:16;13.00;1.00
7684;DHT22;3884;48.616;12.872;2023-02-22T12:36:48;13.00;1.00
7684;DHT22;3884;48.616;12.872;2023-02-22T12:39:31;13.00;1.00
7684;DHT22;3884;48.616;12.872;2023-02-22T12:42:01;13.10;1.00
7684;DHT22;3884;48.616;12.872;2023-02-22T12:44:33;13.10;1.00
7684;DHT22;3884;48.616;12.872;2023-02-22T12:47:01;13.10;1.00
7684;DHT22;3884;48.616;12.872;2023-02-22T12:49:35;13.20;1.00
7684;DHT22;3884;48.616;12.872;2023-02-22T12:52:09;13.30;1.00
7684;DHT22;3884;48.616;12.872;2023-02-22T12:54:46;13.30;1.00
7684;DHT22;3884;48.616;12.872;2023-02-22T12:57:20;13.30;1.00
7684;DHT22;3884;48.616;12.872;2023-02-22T12:59:56;13.30;1.00
7684;DHT22;3884;48.616;12.872;2023-02-22T13:02:29;13.30;1.00
7684;DHT22;3884;48.616;12.872;2023-02-22T13:04:57;13.30;1.00
7684;DHT22;3884;48.616;12.872;2023-02-22T13:07:36;13.30;1.00
7684;DHT22;3884;48.616;12.872;2023-02-22T13:10:23;13.30;1.00
7684;DHT22;3884;48.616;12.872;2023-02-22T13:12:56;13.40;1.00
7684;DHT22;3884;48.616;12.872;2023-02-22T13:15:32;13.40;1.00
7684;DHT22;3884;48.616;12.872;2023-02-22T13:18:09;13.50;1.00
7684;DHT22;3884;48.616;12.872;2023-02-22T13:20:45;13.60;1.00
7684;DHT22;3884;48.616;12.872;2023-02-22T13:23:16;13.70;1.00
7684;DHT22;3884;48.616;12.872;2023-02-22T13:25:52;13.60;1.00
7684;DHT22;3884;48.616;12.872;2023-02-22T13:28:28;13.70;1.00
7684;DHT22;3884;48.616;12.872;2023-02-22T13:31:11;13.70;1.00
7684;DHT22;3884;48.616;12.872;2023-02-22T13:33:59;13.70;1.00
7684;DHT22;3884;48.616;12.872;2023-02-22T13:36:40;13.70;1.00
7684;DHT22;3884;48.616;12.872;2023-02-22T13:39:32;13.70;1.00
7684;DHT22;3884;48.616;12.872;2023-02-22T13:42:16;13.60;1.00
7684;DHT22;3884;48.616;12.872;2023-02-22T13:45:09;13.70;1.00
7684;DHT22;3884;48.616;12.872;2023-02-22T13:48:00;13.60;1.00
7684;DHT22;3884;48.616;12.872;2023-02-22T13:50:50;13.70;1.00
7684;DHT22;3884;48.616;12.872;2023-02-22T13:53:24;13.70;1.00
7684;DHT22;3884;48.616;12.872;2023-02-22T13:55:54;13.70;1.00
7684;DHT22;3884;48.616;12.872;2023-02-22T13:58:24;13.80;1.00
7684;DHT22;3884;48.616;12.872;2023-02-22T14:00:53;13.90;1.00
7684;DHT22;3884;48.616;12.872;2023-02-22T14:03:32;13.90;1.00
7684;DHT22;3884;48.616;12.872;2023-02-22T14:06:02;14.00;99.90
7684;DHT22;3884;48.616;12.872;2023-02-22T14:08:45;14.00;99.90
7684;DHT22;3884;48.616;12.872;2023-02-22T14:14:23;14.10;99.90
7684;DHT22;3884;48.616;12.872;2023-02-22T14:17:23;14.20;99.90
7684;DHT22;3884;48.616;12.872;2023-02-22T14:20:23;14.30;99.90
7684;DHT22;3884;48.616;12.872;2023-02-22T14:22:56;14.30;99.90
7684;DHT22;3884;48.616;12.872;2023-02-22T14:25:44;14.30;99.90
7684;DHT22;3884;48.616;12.872;2023-02-22T14:28:34;14.40;99.90
7684;DHT22;3884;48.616;12.872;2023-02-22T14:31:06;14.50;99.90
7684;DHT22;3884;48.616;12.872;2023-02-22T14:33:53;14.60;99.90
7684;DHT22;3884;48.616;12.872;2023-02-22T14:36:22;14.60;99.90
7684;DHT22;3884;48.616;12.872;2023-02-22T14:38:53;14.60;99.90
7684;DHT22;3884;48.616;12.872;2023-02-22T14:41:26;14.70;99.90
7684;DHT22;3884;48.616;12.872;2023-02-22T14:43:55;14.70;99.90
7684;DHT22;3884;48.616;12.872;2023-02-22T14:46:27;14.70;99.90
7684;DHT22;3884;48.616;12.872;2023-02-22T14:48:59;14.70;99.90
7684;DHT22;3884;48.616;12.872;2023-02-22T14:51:33;14.90;99.90
7684;DHT22;3884;48.616;12.872;2023-02-22T14:54:07;15.10;99.90
7684;DHT22;3884;48.616;12.872;2023-02-22T14:56:39;15.20;80.50
7684;DHT22;3884;48.616;12.872;2023-02-22T14:59:15;15.40;69.80
7684;DHT22;3884;48.616;12.872;2023-02-22T15:01:44;15.30;82.40
7684;DHT22;3884;48.616;12.872;2023-02-22T15:04:17;15.30;58.90
7684;DHT22;3884;48.616;12.872;2023-02-22T15:06:44;15.20;40.60
7684;DHT22;3884;48.616;12.872;2023-02-22T15:09:15;15.00;31.00
7684;DHT22;3884;48.616;12.872;2023-02-22T15:11:49;14.90;26.30
7684;DHT22;3884;48.616;12.872;2023-02-22T15:14:19;14.80;25.00
7684;DHT22;3884;48.616;12.872;2023-02-22T15:16:50;14.70;53.00
7684;DHT22;3884;48.616;12.872;2023-02-22T15:19:22;14.50;50.60
7684;DHT22;3884;48.616;12.872;2023-02-22T15:21:52;14.40;66.40
7684;DHT22;3884;48.616;12.872;2023-02-22T15:24:22;14.30;33.70
7684;DHT22;3884;48.616;12.872;2023-02-22T15:26:50;14.20;50.80
7684;DHT22;3884;48.616;12.872;2023-02-22T15:29:19;14.10;48.50
7684;DHT22;3884;48.616;12.872;2023-02-22T15:31:49;14.00;55.20
7684;DHT22;3884;48.616;12.872;2023-02-22T15:34:19;13.90;83.10
7684;DHT22;3884;48.616;12.872;2023-02-22T15:36:50;13.70;99.90
7684;DHT22;3884;48.616;12.872;2023-02-22T15:39:21;13.50;99.90
7684;DHT22;3884;48.616;12.872;2023-02-22T15:42:06;13.40;99.90
7684;DHT22;3884;48.616;12.872;2023-02-22T15:44:38;13.20;1.00
7684;DHT22;3884;48.616;12.872;2023-02-22T15:47:10;13.10;1.00
7684;DHT22;3884;48.616;12.872;2023-02-22T15:49:38;13.10;1.00
7684;DHT22;3884;48.616;12.872;2023-02-22T15:52:07;12.90;1.00
7684;DHT22;3884;48.616;12.872;2023-02-22T15:54:44;12.80;1.00
7684;DHT22;3884;48.616;12.872;2023-02-22T15:57:16;12.80;81.10
7684;DHT22;3884;48.616;12.872;2023-02-22T15:59:49;12.70;50.30
7684;DHT22;3884;48.616;12.872;2023-02-22T16:02:33;12.60;99.90
7684;DHT22;3884;48.616;12.872;2023-02-22T16:05:06;12.50;99.90
7684;DHT22;3884;48.616;12.872;2023-02-22T16:07:37;12.50;99.90
7684;DHT22;3884;48.616;12.872;2023-02-22T16:10:05;12.40;99.90
7684;DHT22;3884;48.616;12.872;2023-02-22T16:12:37;12.30;1.00
7684;DHT22;3884;48.616;12.872;2023-02-22T16:15:16;12.20;1.00
7684;DHT22;3884;48.616;12.872;2023-02-22T16:18:16;12.10;1.00
7684;DHT22;3884;48.616;12.872;2023-02-22T16:20:58;12.10;1.00
7684;DHT22;3884;48.616;12.872;2023-02-22T16:23:26;12.00;1.00
7684;DHT22;3884;48.616;12.872;2023-02-22T16:26:06;11.90;35.70
7684;DHT22;3884;48.616;12.872;2023-02-22T16:28:46;11.80;99.90
7684;DHT22;3884;48.616;12.872;2023-02-22T16:31:17;11.80;99.90
7684;DHT22;3884;48.616;12.872;2023-02-22T16:33:47;11.80;99.90
7684;DHT22;3884;48.616;12.872;2023-02-22T16:36:16;11.70;99.90
7684;DHT22;3884;48.616;12.872;2023-02-22T16:38:44;11.70;99.90